sensor_id;sensor_type;location;lat;lon;timestamp;P1;durP1;ratioP1;P2;durP2;ratioP2
3407;SDS011;1717;50.240;8.406;2023-05-02T00:02:22;6.23;;;5.63;;
3407;SDS011;1717;50.240;8.406;2023-05-02T00:04:49;7.73;;;7.00;;
3407;SDS011;1717;50.240;8.406;2023-05-02T00:07:16;6.90;;;6.20;;
3407;SDS011;1717;50.240;8.406;2023-05-02T00:09:43;6.43;;;5.90;;
3407;SDS011;1717;50.240;8.406;2023-05-02T00:12:11;7.27;;;6.20;;
3407;SDS011;1717;50.240;8.406;2023-05-02T00:14:38;8.43;;;7.53;;
3407;SDS011;1717;50.240;8.406;2023-05-02T00:17:04;8.30;;;7.60;;
3407;SDS011;1717;50.240;8.406;2023-05-02T00:19:31;7.40;;;6.43;;
3407;SDS011;1717;50.240;8.406;2023-05-02T00:22:03;7.93;;;7.13;;
3407;SDS011;1717;50.240;8.406;2023-05-02T00:24:30;8.10;;;7.30;;
3407;SDS011;1717;50.240;8.406;2023-05-02T00:26:57;9.77;;;8.80;;
3407;SDS011;1717;50.240;8.406;2023-05-02T00:29:25;8.13;;;7.33;;
3407;SDS011;1717;50.240;8.406;2023-05-02T00:31:52;8.97;;;8.07;;
3407;SDS011;1717;50.240;8.406;2023-05-02T00:34:19;9.00;;;8.20;;
3407;SDS011;1717;50.240;8.406;2023-05-02T00:36:46;9.37;;;8.47;;
3407;SDS011;1717;50.240;8.406;2023-05-02T00:39:13;8.60;;;7.70;;
3407;SDS011;1717;50.240;8.406;2023-05-02T00:41:40;9.30;;;8.40;;
3407;SDS011;1717;50.240;8.406;2023-05-02T00:44:07;9.43;;;8.53;;
3407;SDS011;1717;50.240;8.406;2023-05-02T00:46:35;9.43;;;8.50;;
3407;SDS011;1717;50.240;8.406;2023-05-02T00:49:02;10.13;;;9.13;;
3407;SDS011;1717;50.240;8.406;2023-05-02T00:51:30;10.50;;;9.40;;
3407;SDS011;1717;50.240;8.406;2023-05-02T00:53:59;11.13;;;9.90;;
3407;SDS011;1717;50.240;8.406;2023-05-02T00:56:26;10.33;;;9.10;;
3407;SDS011;1717;50.240;8.406;2023-05-02T00:58:53;11.97;;;10.47;;
3407;SDS011;1717;50.240;8.406;2023-05-02T01:01:25;11.20;;;10.03;;
3407;SDS011;1717;50.240;8.406;2023-05-02T01:04:07;12.77;;;10.53;;
3407;SDS011;1717;50.240;8.406;2023-05-02T01:06:47;12.50;;;11.10;;
3407;SDS011;1717;50.240;8.406;2023-05-02T01:09:23;12.50;;;11.30;;
3407;SDS011;1717;50.240;8.406;2023-05-02T01:12:00;15.60;;;12.10;;
3407;SDS011;1717;50.240;8.406;2023-05-02T01:14:29;13.50;;;11.33;;
3407;SDS011;1717;50.240;8.406;2023-05-02T01:17:00;15.53;;;12.17;;
3407;SDS011;1717;50.240;8.406;2023-05-02T01:19:32;15.83;;;13.70;;
3407;SDS011;1717;50.240;8.406;2023-05-02T01:22:02;14.87;;;13.23;;
3407;SDS011;1717;50.240;8.406;2023-05-02T01:24:34;15.73;;;14.10;;
3407;SDS011;1717;50.240;8.406;2023-05-02T01:27:10;14.07;;;12.50;;
3407;SDS011;1717;50.240;8.406;2023-05-02T01:29:49;17.30;;;14.47;;
3407;SDS011;1717;50.240;8.406;2023-05-02T01:32:18;19.07;;;16.53;;
3407;SDS011;1717;50.240;8.406;2023-05-02T01:34:47;17.50;;;15.57;;
3407;SDS011;1717;50.240;8.406;2023-05-02T01:37:17;17.97;;;15.87;;
3407;SDS011;1717;50.240;8.406;2023-05-02T01:39:45;21.37;;;16.90;;
3407;SDS011;1717;50.240;8.406;2023-05-02T01:42:13;19.53;;;16.83;;
3407;SDS011;1717;50.240;8.406;2023-05-02T01:44:41;20.93;;;16.13;;
3407;SDS011;1717;50.240;8.406;2023-05-02T01:47:11;20.03;;;16.87;;
3407;SDS011;1717;50.240;8.406;2023-05-02T01:49:39;19.63;;;16.97;;
3407;SDS011;1717;50.240;8.406;2023-05-02T01:52:10;20.03;;;17.20;;
3407;SDS011;1717;50.240;8.406;2023-05-02T01:54:38;19.83;;;16.50;;
3407;SDS011;1717;50.240;8.406;2023-05-02T01:57:06;21.90;;;18.67;;
3407;SDS011;1717;50.240;8.406;2023-05-02T01:59:34;24.20;;;18.33;;
3407;SDS011;1717;50.240;8.406;2023-05-02T02:02:03;23.03;;;18.50;;
3407;SDS011;1717;50.240;8.406;2023-05-02T02:04:32;20.60;;;16.97;;
3407;SDS011;1717;50.240;8.406;2023-05-02T02:07:05;20.53;;;17.33;;
3407;SDS011;1717;50.240;8.406;2023-05-02T02:09:33;24.47;;;20.33;;
3407;SDS011;1717;50.240;8.406;2023-05-02T02:12:01;22.90;;;18.63;;
3407;SDS011;1717;50.240;8.406;2023-05-02T02:14:32;22.17;;;18.33;;
3407;SDS011;1717;50.240;8.406;2023-05-02T02:17:03;23.30;;;19.57;;
3407;SDS011;1717;50.240;8.406;2023-05-02T02:19:38;21.90;;;19.40;;
3407;SDS011;1717;50.240;8.406;2023-05-02T02:22:07;23.80;;;19.73;;
3407;SDS011;1717;50.240;8.406;2023-05-02T02:24:35;23.60;;;19.07;;
3407;SDS011;1717;50.240;8.406;2023-05-02T02:27:04;26.33;;;20.17;;
3407;SDS011;1717;50.240;8.406;2023-05-02T02:29:30;26.10;;;22.00;;
3407;SDS011;1717;50.240;8.406;2023-05-02T02:31:58;23.07;;;19.30;;
3407;SDS011;1717;50.240;8.406;2023-05-02T02:34:24;25.40;;;21.07;;
3407;SDS011;1717;50.240;8.406;2023-05-02T02:36:54;26.30;;;20.97;;
3407;SDS011;1717;50.240;8.406;2023-05-02T02:39:29;28.07;;;22.10;;
3407;SDS011;1717;50.240;8.406;2023-05-02T02:42:09;24.30;;;21.60;;
3407;SDS011;1717;50.240;8.406;2023-05-02T02:44:42;25.37;;;21.30;;
3407;SDS011;1717;50.240;8.406;2023-05-02T02:47:20;30.07;;;23.47;;
3407;SDS011;1717;50.240;8.406;2023-05-02T02:49:55;26.57;;;22.90;;
3407;SDS011;1717;50.240;8.406;2023-05-02T02:52:37;27.87;;;22.17;;
3407;SDS011;1717;50.240;8.406;2023-05-02T02:55:15;31.60;;;22.70;;
3407;SDS011;1717;50.240;8.406;2023-05-02T02:57:50;29.40;;;21.33;;
3407;SDS011;1717;50.240;8.406;2023-05-02T03:00:24;29.73;;;25.27;;
3407;SDS011;1717;50.240;8.406;2023-05-02T03:02:52;32.17;;;24.80;;
3407;SDS011;1717;50.240;8.406;2023-05-02T03:05:20;30.07;;;22.30;;
3407;SDS011;1717;50.240;8.406;2023-05-02T03:07:49;30.37;;;24.57;;
3407;SDS011;1717;50.240;8.406;2023-05-02T03:10:17;31.60;;;23.77;;
3407;SDS011;1717;50.240;8.406;2023-05-02T03:12:43;28.50;;;22.40;;
3407;SDS011;1717;50.240;8.406;2023-05-02T03:15:13;29.40;;;24.10;;
3407;SDS011;1717;50.240;8.406;2023-05-02T03:17:51;31.90;;;25.67;;
3407;SDS011;1717;50.240;8.406;2023-05-02T03:20:18;30.67;;;25.23;;
3407;SDS011;1717;50.240;8.406;2023-05-02T03:22:45;32.67;;;26.80;;
3407;SDS011;1717;50.240;8.406;2023-05-02T03:25:13;40.40;;;27.73;;
3407;SDS011;1717;50.240;8.406;2023-05-02T03:27:40;32.60;;;25.17;;
3407;SDS011;1717;50.240;8.406;2023-05-02T03:30:08;36.63;;;28.23;;
3407;SDS011;1717;50.240;8.406;2023-05-02T03:32:35;39.33;;;25.63;;
3407;SDS011;1717;50.240;8.406;2023-05-02T03:35:02;38.60;;;28.87;;
3407;SDS011;1717;50.240;8.406;2023-05-02T03:37:29;33.80;;;26.60;;
3407;SDS011;1717;50.240;8.406;2023-05-02T03:39:57;35.60;;;28.63;;
3407;SDS011;1717;50.240;8.406;2023-05-02T03:42:25;34.77;;;28.23;;
3407;SDS011;1717;50.240;8.406;2023-05-02T03:44:52;35.27;;;27.20;;
3407;SDS011;1717;50.240;8.406;2023-05-02T03:47:19;34.97;;;27.53;;
3407;SDS011;1717;50.240;8.406;2023-05-02T03:49:45;33.17;;;26.73;;
3407;SDS011;1717;50.240;8.406;2023-05-02T03:52:12;38.57;;;28.00;;
3407;SDS011;1717;50.240;8.406;2023-05-02T03:54:39;37.03;;;28.67;;
3407;SDS011;1717;50.240;8.406;2023-05-02T03:57:07;38.67;;;28.40;;
3407;SDS011;1717;50.240;8.406;2023-05-02T03:59:35;39.93;;;30.63;;
3407;SDS011;1717;50.240;8.406;2023-05-02T04:02:05;36.60;;;28.37;;
3407;SDS011;1717;50.240;8.406;2023-05-02T04:04:32;35.10;;;28.70;;
3407;SDS011;1717;50.240;8.406;2023-05-02T04:07:00;39.17;;;29.40;;
3407;SDS011;1717;50.240;8.406;2023-05-02T04:09:27;43.43;;;31.73;;
3407;SDS011;1717;50.240;8.406;2023-05-02T04:11:54;37.87;;;28.70;;
3407;SDS011;1717;50.240;8.406;2023-05-02T04:14:21;38.20;;;29.90;;
3407;SDS011;1717;50.240;8.406;2023-05-02T04:16:49;40.33;;;30.77;;
3407;SDS011;1717;50.240;8.406;2023-05-02T04:19:16;42.90;;;32.23;;
3407;SDS011;1717;50.240;8.406;2023-05-02T04:21:44;40.97;;;31.47;;
3407;SDS011;1717;50.240;8.406;2023-05-02T04:24:11;43.13;;;32.13;;
3407;SDS011;1717;50.240;8.406;2023-05-02T04:26:39;43.80;;;33.43;;
3407;SDS011;1717;50.240;8.406;2023-05-02T04:29:07;45.33;;;34.90;;
3407;SDS011;1717;50.240;8.406;2023-05-02T04:31:33;46.10;;;32.90;;
3407;SDS011;1717;50.240;8.406;2023-05-02T04:34:02;43.90;;;34.40;;
3407;SDS011;1717;50.240;8.406;2023-05-02T04:36:29;50.17;;;35.67;;
3407;SDS011;1717;50.240;8.406;2023-05-02T04:38:56;50.00;;;36.27;;
3407;SDS011;1717;50.240;8.406;2023-05-02T04:41:23;47.73;;;35.17;;
3407;SDS011;1717;50.240;8.406;2023-05-02T04:43:50;47.87;;;36.00;;
3407;SDS011;1717;50.240;8.406;2023-05-02T04:46:16;54.73;;;38.70;;
3407;SDS011;1717;50.240;8.406;2023-05-02T04:48:43;55.17;;;39.03;;
3407;SDS011;1717;50.240;8.406;2023-05-02T04:51:11;52.87;;;37.23;;
3407;SDS011;1717;50.240;8.406;2023-05-02T04:53:38;52.97;;;37.40;;
3407;SDS011;1717;50.240;8.406;2023-05-02T04:56:06;52.97;;;38.57;;
3407;SDS011;1717;50.240;8.406;2023-05-02T04:58:32;52.23;;;37.60;;
3407;SDS011;1717;50.240;8.406;2023-05-02T05:01:00;52.77;;;37.33;;
3407;SDS011;1717;50.240;8.406;2023-05-02T05:03:27;55.30;;;39.33;;
3407;SDS011;1717;50.240;8.406;2023-05-02T05:05:54;51.70;;;37.10;;
3407;SDS011;1717;50.240;8.406;2023-05-02T05:08:23;62.83;;;40.27;;
3407;SDS011;1717;50.240;8.406;2023-05-02T05:10:50;55.03;;;39.30;;
3407;SDS011;1717;50.240;8.406;2023-05-02T05:13:17;56.33;;;40.40;;
3407;SDS011;1717;50.240;8.406;2023-05-02T05:15:44;60.27;;;41.50;;
3407;SDS011;1717;50.240;8.406;2023-05-02T05:18:11;56.43;;;39.93;;
3407;SDS011;1717;50.240;8.406;2023-05-02T05:20:37;61.33;;;41.03;;
3407;SDS011;1717;50.240;8.406;2023-05-02T05:23:04;57.80;;;40.47;;
3407;SDS011;1717;50.240;8.406;2023-05-02T05:25:32;53.50;;;37.83;;
3407;SDS011;1717;50.240;8.406;2023-05-02T05:27:59;56.80;;;38.50;;
3407;SDS011;1717;50.240;8.406;2023-05-02T05:30:26;58.83;;;39.33;;
3407;SDS011;1717;50.240;8.406;2023-05-02T05:32:54;50.57;;;36.37;;
3407;SDS011;1717;50.240;8.406;2023-05-02T05:35:22;58.50;;;41.00;;
3407;SDS011;1717;50.240;8.406;2023-05-02T05:37:49;63.33;;;41.63;;
3407;SDS011;1717;50.240;8.406;2023-05-02T05:40:16;61.97;;;41.87;;
3407;SDS011;1717;50.240;8.406;2023-05-02T05:42:44;58.83;;;40.47;;
3407;SDS011;1717;50.240;8.406;2023-05-02T05:45:11;52.73;;;35.83;;
3407;SDS011;1717;50.240;8.406;2023-05-02T05:47:38;63.53;;;42.03;;
3407;SDS011;1717;50.240;8.406;2023-05-02T05:50:06;59.37;;;40.43;;
3407;SDS011;1717;50.240;8.406;2023-05-02T05:52:33;60.87;;;41.90;;
3407;SDS011;1717;50.240;8.406;2023-05-02T05:55:01;60.27;;;42.40;;
3407;SDS011;1717;50.240;8.406;2023-05-02T05:57:28;56.20;;;39.10;;
3407;SDS011;1717;50.240;8.406;2023-05-02T05:59:56;65.10;;;42.20;;
3407;SDS011;1717;50.240;8.406;2023-05-02T06:02:23;60.53;;;41.67;;
3407;SDS011;1717;50.240;8.406;2023-05-02T06:04:50;55.50;;;38.73;;
3407;SDS011;1717;50.240;8.406;2023-05-02T06:07:17;60.50;;;41.17;;
3407;SDS011;1717;50.240;8.406;2023-05-02T06:09:44;56.83;;;41.10;;
3407;SDS011;1717;50.240;8.406;2023-05-02T06:12:10;59.73;;;39.80;;
3407;SDS011;1717;50.240;8.406;2023-05-02T06:14:37;62.17;;;41.43;;
3407;SDS011;1717;50.240;8.406;2023-05-02T06:17:05;61.57;;;40.83;;
3407;SDS011;1717;50.240;8.406;2023-05-02T06:19:32;55.57;;;40.20;;
3407;SDS011;1717;50.240;8.406;2023-05-02T06:21:59;59.27;;;39.90;;
3407;SDS011;1717;50.240;8.406;2023-05-02T06:24:26;60.23;;;40.60;;
3407;SDS011;1717;50.240;8.406;2023-05-02T06:26:52;57.13;;;39.23;;
3407;SDS011;1717;50.240;8.406;2023-05-02T06:29:19;56.50;;;40.93;;
3407;SDS011;1717;50.240;8.406;2023-05-02T06:31:46;57.20;;;38.73;;
3407;SDS011;1717;50.240;8.406;2023-05-02T06:34:16;65.10;;;40.80;;
3407;SDS011;1717;50.240;8.406;2023-05-02T06:36:43;60.23;;;39.17;;
3407;SDS011;1717;50.240;8.406;2023-05-02T06:39:10;58.17;;;39.10;;
3407;SDS011;1717;50.240;8.406;2023-05-02T06:41:37;64.67;;;41.80;;
3407;SDS011;1717;50.240;8.406;2023-05-02T06:44:04;64.30;;;42.33;;
3407;SDS011;1717;50.240;8.406;2023-05-02T06:46:31;60.00;;;39.80;;
3407;SDS011;1717;50.240;8.406;2023-05-02T06:48:58;69.97;;;41.63;;
3407;SDS011;1717;50.240;8.406;2023-05-02T06:51:26;67.93;;;43.80;;
3407;SDS011;1717;50.240;8.406;2023-05-02T06:53:53;60.43;;;40.80;;
3407;SDS011;1717;50.240;8.406;2023-05-02T06:56:20;60.23;;;40.00;;
3407;SDS011;1717;50.240;8.406;2023-05-02T06:58:47;65.27;;;40.70;;
3407;SDS011;1717;50.240;8.406;2023-05-02T07:01:15;56.13;;;38.10;;
3407;SDS011;1717;50.240;8.406;2023-05-02T07:03:41;63.07;;;38.57;;
3407;SDS011;1717;50.240;8.406;2023-05-02T07:06:08;56.87;;;36.67;;
3407;SDS011;1717;50.240;8.406;2023-05-02T07:08:36;57.20;;;34.90;;
3407;SDS011;1717;50.240;8.406;2023-05-02T07:11:03;54.00;;;34.33;;
3407;SDS011;1717;50.240;8.406;2023-05-02T07:13:30;53.50;;;34.77;;
3407;SDS011;1717;50.240;8.406;2023-05-02T07:15:57;55.00;;;34.67;;
3407;SDS011;1717;50.240;8.406;2023-05-02T07:18:24;51.00;;;33.67;;
3407;SDS011;1717;50.240;8.406;2023-05-02T07:20:51;55.80;;;34.87;;
3407;SDS011;1717;50.240;8.406;2023-05-02T07:23:18;52.83;;;33.30;;
3407;SDS011;1717;50.240;8.406;2023-05-02T07:25:47;51.10;;;32.57;;
3407;SDS011;1717;50.240;8.406;2023-05-02T07:28:14;48.40;;;32.93;;
3407;SDS011;1717;50.240;8.406;2023-05-02T07:30:41;46.00;;;31.10;;
3407;SDS011;1717;50.240;8.406;2023-05-02T07:33:07;45.40;;;31.43;;
3407;SDS011;1717;50.240;8.406;2023-05-02T07:35:34;56.80;;;32.20;;
3407;SDS011;1717;50.240;8.406;2023-05-02T07:38:01;44.03;;;29.57;;
3407;SDS011;1717;50.240;8.406;2023-05-02T07:40:28;49.63;;;32.83;;
3407;SDS011;1717;50.240;8.406;2023-05-02T07:42:56;50.00;;;31.23;;
3407;SDS011;1717;50.240;8.406;2023-05-02T07:45:23;47.90;;;32.30;;
3407;SDS011;1717;50.240;8.406;2023-05-02T07:47:50;50.33;;;31.70;;
3407;SDS011;1717;50.240;8.406;2023-05-02T07:50:17;48.80;;;31.30;;
3407;SDS011;1717;50.240;8.406;2023-05-02T07:52:44;45.83;;;28.87;;
3407;SDS011;1717;50.240;8.406;2023-05-02T07:55:10;54.80;;;32.90;;
3407;SDS011;1717;50.240;8.406;2023-05-02T07:57:37;45.60;;;28.47;;
3407;SDS011;1717;50.240;8.406;2023-05-02T08:00:07;41.50;;;27.50;;
3407;SDS011;1717;50.240;8.406;2023-05-02T08:02:35;49.17;;;29.87;;
3407;SDS011;1717;50.240;8.406;2023-05-02T08:05:02;48.30;;;30.20;;
3407;SDS011;1717;50.240;8.406;2023-05-02T08:07:30;48.10;;;30.23;;
3407;SDS011;1717;50.240;8.406;2023-05-02T08:09:57;45.40;;;30.20;;
3407;SDS011;1717;50.240;8.406;2023-05-02T08:12:24;52.40;;;30.67;;
3407;SDS011;1717;50.240;8.406;2023-05-02T08:14:51;47.83;;;27.97;;
3407;SDS011;1717;50.240;8.406;2023-05-02T08:17:19;41.87;;;26.97;;
3407;SDS011;1717;50.240;8.406;2023-05-02T08:19:47;43.10;;;28.27;;
3407;SDS011;1717;50.240;8.406;2023-05-02T08:22:13;39.80;;;25.53;;
3407;SDS011;1717;50.240;8.406;2023-05-02T08:24:40;43.53;;;26.83;;
3407;SDS011;1717;50.240;8.406;2023-05-02T08:27:07;48.70;;;26.87;;
3407;SDS011;1717;50.240;8.406;2023-05-02T08:29:34;45.80;;;28.53;;
3407;SDS011;1717;50.240;8.406;2023-05-02T08:32:01;43.57;;;26.40;;
3407;SDS011;1717;50.240;8.406;2023-05-02T08:34:29;40.50;;;25.67;;
3407;SDS011;1717;50.240;8.406;2023-05-02T08:36:57;37.37;;;24.30;;
3407;SDS011;1717;50.240;8.406;2023-05-02T08:39:24;39.87;;;23.90;;
3407;SDS011;1717;50.240;8.406;2023-05-02T08:41:51;37.80;;;24.03;;
3407;SDS011;1717;50.240;8.406;2023-05-02T08:44:18;37.00;;;22.70;;
3407;SDS011;1717;50.240;8.406;2023-05-02T08:46:45;33.77;;;21.80;;
3407;SDS011;1717;50.240;8.406;2023-05-02T08:49:14;38.17;;;22.37;;
3407;SDS011;1717;50.240;8.406;2023-05-02T08:51:45;35.83;;;22.70;;
3407;SDS011;1717;50.240;8.406;2023-05-02T08:54:15;35.00;;;20.97;;
3407;SDS011;1717;50.240;8.406;2023-05-02T08:56:42;32.00;;;20.63;;
3407;SDS011;1717;50.240;8.406;2023-05-02T08:59:10;30.87;;;21.23;;
3407;SDS011;1717;50.240;8.406;2023-05-02T09:01:36;27.40;;;18.70;;
3407;SDS011;1717;50.240;8.406;2023-05-02T09:04:09;28.00;;;18.50;;
3407;SDS011;1717;50.240;8.406;2023-05-02T09:06:37;24.80;;;16.17;;
3407;SDS011;1717;50.240;8.406;2023-05-02T09:09:05;27.27;;;16.37;;
3407;SDS011;1717;50.240;8.406;2023-05-02T09:11:32;25.67;;;17.00;;
3407;SDS011;1717;50.240;8.406;2023-05-02T09:13:59;23.97;;;15.67;;
3407;SDS011;1717;50.240;8.406;2023-05-02T09:16:28;25.40;;;16.30;;
3407;SDS011;1717;50.240;8.406;2023-05-02T09:18:55;23.33;;;14.17;;
3407;SDS011;1717;50.240;8.406;2023-05-02T09:21:23;20.47;;;13.77;;
3407;SDS011;1717;50.240;8.406;2023-05-02T09:23:51;21.10;;;14.07;;
3407;SDS011;1717;50.240;8.406;2023-05-02T09:26:22;21.27;;;13.87;;
3407;SDS011;1717;50.240;8.406;2023-05-02T09:28:51;19.70;;;13.37;;
3407;SDS011;1717;50.240;8.406;2023-05-02T09:31:19;19.23;;;13.20;;
3407;SDS011;1717;50.240;8.406;2023-05-02T09:33:47;18.73;;;12.13;;
3407;SDS011;1717;50.240;8.406;2023-05-02T09:36:15;17.63;;;12.20;;
3407;SDS011;1717;50.240;8.406;2023-05-02T09:38:43;22.67;;;14.40;;
3407;SDS011;1717;50.240;8.406;2023-05-02T09:41:11;16.03;;;11.10;;
3407;SDS011;1717;50.240;8.406;2023-05-02T09:43:40;19.10;;;10.93;;
3407;SDS011;1717;50.240;8.406;2023-05-02T09:46:08;17.43;;;11.63;;
3407;SDS011;1717;50.240;8.406;2023-05-02T09:48:50;15.07;;;11.23;;
3407;SDS011;1717;50.240;8.406;2023-05-02T09:51:20;13.70;;;10.30;;
3407;SDS011;1717;50.240;8.406;2023-05-02T09:53:48;13.30;;;9.37;;
3407;SDS011;1717;50.240;8.406;2023-05-02T09:56:15;13.33;;;9.67;;
3407;SDS011;1717;50.240;8.406;2023-05-02T09:58:44;16.67;;;10.80;;
3407;SDS011;1717;50.240;8.406;2023-05-02T10:01:14;12.97;;;8.80;;
3407;SDS011;1717;50.240;8.406;2023-05-02T10:03:41;14.30;;;10.43;;
3407;SDS011;1717;50.240;8.406;2023-05-02T10:06:12;15.00;;;10.03;;
3407;SDS011;1717;50.240;8.406;2023-05-02T10:08:40;11.17;;;8.20;;
3407;SDS011;1717;50.240;8.406;2023-05-02T10:11:09;12.23;;;8.47;;
3407;SDS011;1717;50.240;8.406;2023-05-02T10:13:38;13.00;;;8.30;;
3407;SDS011;1717;50.240;8.406;2023-05-02T10:16:08;12.40;;;8.00;;
3407;SDS011;1717;50.240;8.406;2023-05-02T10:18:39;11.30;;;8.13;;
3407;SDS011;1717;50.240;8.406;2023-05-02T10:21:09;8.90;;;6.30;;
3407;SDS011;1717;50.240;8.406;2023-05-02T10:23:37;10.77;;;7.40;;
3407;SDS011;1717;50.240;8.406;2023-05-02T10:26:07;8.80;;;6.60;;
3407;SDS011;1717;50.240;8.406;2023-05-02T10:28:36;10.10;;;6.50;;
3407;SDS011;1717;50.240;8.406;2023-05-02T10:31:04;8.30;;;6.30;;
3407;SDS011;1717;50.240;8.406;2023-05-02T10:33:32;10.10;;;5.70;;
3407;SDS011;1717;50.240;8.406;2023-05-02T10:36:00;9.90;;;6.00;;
3407;SDS011;1717;50.240;8.406;2023-05-02T10:38:27;11.40;;;6.60;;
3407;SDS011;1717;50.240;8.406;2023-05-02T10:40:55;8.30;;;6.30;;
3407;SDS011;1717;50.240;8.406;2023-05-02T10:43:26;8.47;;;5.60;;
3407;SDS011;1717;50.240;8.406;2023-05-02T10:45:56;8.00;;;5.40;;
3407;SDS011;1717;50.240;8.406;2023-05-02T10:48:24;9.53;;;6.53;;
3407;SDS011;1717;50.240;8.406;2023-05-02T10:50:53;7.90;;;5.87;;
3407;SDS011;1717;50.240;8.406;2023-05-02T10:53:21;7.37;;;5.70;;
3407;SDS011;1717;50.240;8.406;2023-05-02T10:58:38;8.07;;;6.40;;
3407;SDS011;1717;50.240;8.406;2023-05-02T11:04:02;9.47;;;7.50;;
3407;SDS011;1717;50.240;8.406;2023-05-02T11:06:32;9.20;;;6.43;;
3407;SDS011;1717;50.240;8.406;2023-05-02T11:12:01;8.77;;;6.37;;
3407;SDS011;1717;50.240;8.406;2023-05-02T11:14:42;11.37;;;6.93;;
3407;SDS011;1717;50.240;8.406;2023-05-02T11:17:14;8.13;;;6.80;;
3407;SDS011;1717;50.240;8.406;2023-05-02T11:22:50;8.20;;;5.80;;
3407;SDS011;1717;50.240;8.406;2023-05-02T11:25:36;9.43;;;6.00;;
3407;SDS011;1717;50.240;8.406;2023-05-02T11:28:05;8.07;;;6.97;;
3407;SDS011;1717;50.240;8.406;2023-05-02T11:30:40;9.20;;;6.63;;
3407;SDS011;1717;50.240;8.406;2023-05-02T11:33:18;9.80;;;6.57;;
3407;SDS011;1717;50.240;8.406;2023-05-02T11:35:46;7.10;;;5.67;;
3407;SDS011;1717;50.240;8.406;2023-05-02T11:38:16;8.37;;;6.57;;
3407;SDS011;1717;50.240;8.406;2023-05-02T11:40:51;8.40;;;6.27;;
3407;SDS011;1717;50.240;8.406;2023-05-02T11:43:20;8.07;;;7.13;;
3407;SDS011;1717;50.240;8.406;2023-05-02T11:45:49;8.87;;;6.77;;
3407;SDS011;1717;50.240;8.406;2023-05-02T11:48:16;6.90;;;5.20;;
3407;SDS011;1717;50.240;8.406;2023-05-02T11:50:45;6.73;;;5.60;;
3407;SDS011;1717;50.240;8.406;2023-05-02T11:53:13;8.37;;;6.80;;
3407;SDS011;1717;50.240;8.406;2023-05-02T11:55:43;6.47;;;5.67;;
3407;SDS011;1717;50.240;8.406;2023-05-02T11:58:14;7.10;;;5.07;;
3407;SDS011;1717;50.240;8.406;2023-05-02T12:00:42;8.37;;;4.87;;
3407;SDS011;1717;50.240;8.406;2023-05-02T12:03:26;6.63;;;4.63;;
3407;SDS011;1717;50.240;8.406;2023-05-02T12:05:54;6.17;;;5.10;;
3407;SDS011;1717;50.240;8.406;2023-05-02T12:08:24;5.30;;;3.90;;
3407;SDS011;1717;50.240;8.406;2023-05-02T12:10:52;4.30;;;3.70;;
3407;SDS011;1717;50.240;8.406;2023-05-02T12:13:21;4.00;;;3.60;;
3407;SDS011;1717;50.240;8.406;2023-05-02T12:15:48;4.43;;;3.83;;
3407;SDS011;1717;50.240;8.406;2023-05-02T12:18:17;4.27;;;3.73;;
3407;SDS011;1717;50.240;8.406;2023-05-02T12:20:47;5.00;;;3.73;;
3407;SDS011;1717;50.240;8.406;2023-05-02T12:23:17;5.63;;;5.03;;
3407;SDS011;1717;50.240;8.406;2023-05-02T12:25:46;4.83;;;3.90;;
3407;SDS011;1717;50.240;8.406;2023-05-02T12:28:15;4.03;;;3.50;;
3407;SDS011;1717;50.240;8.406;2023-05-02T12:30:43;5.87;;;5.00;;
3407;SDS011;1717;50.240;8.406;2023-05-02T12:33:12;4.03;;;3.63;;
3407;SDS011;1717;50.240;8.406;2023-05-02T12:35:39;6.30;;;5.10;;
3407;SDS011;1717;50.240;8.406;2023-05-02T12:38:07;7.00;;;4.73;;
3407;SDS011;1717;50.240;8.406;2023-05-02T12:40:35;5.20;;;4.70;;
3407;SDS011;1717;50.240;8.406;2023-05-02T12:43:05;5.67;;;5.03;;
3407;SDS011;1717;50.240;8.406;2023-05-02T12:45:34;5.77;;;5.20;;
3407;SDS011;1717;50.240;8.406;2023-05-02T12:48:05;5.37;;;4.87;;
3407;SDS011;1717;50.240;8.406;2023-05-02T12:50:43;7.50;;;5.50;;
3407;SDS011;1717;50.240;8.406;2023-05-02T12:53:10;7.20;;;5.50;;
3407;SDS011;1717;50.240;8.406;2023-05-02T12:55:37;6.63;;;6.03;;
3407;SDS011;1717;50.240;8.406;2023-05-02T12:58:07;7.23;;;5.83;;
3407;SDS011;1717;50.240;8.406;2023-05-02T13:00:35;6.63;;;5.43;;
3407;SDS011;1717;50.240;8.406;2023-05-02T13:03:03;6.67;;;5.67;;
3407;SDS011;1717;50.240;8.406;2023-05-02T13:05:30;7.10;;;6.27;;
3407;SDS011;1717;50.240;8.406;2023-05-02T13:07:57;8.33;;;7.23;;
3407;SDS011;1717;50.240;8.406;2023-05-02T13:10:24;6.13;;;5.53;;
3407;SDS011;1717;50.240;8.406;2023-05-02T13:12:52;7.00;;;5.57;;
3407;SDS011;1717;50.240;8.406;2023-05-02T13:15:20;5.97;;;5.37;;
3407;SDS011;1717;50.240;8.406;2023-05-02T13:17:49;7.23;;;6.00;;
3407;SDS011;1717;50.240;8.406;2023-05-02T13:20:16;8.43;;;5.97;;
3407;SDS011;1717;50.240;8.406;2023-05-02T13:22:43;8.70;;;6.13;;
3407;SDS011;1717;50.240;8.406;2023-05-02T13:25:10;7.90;;;6.20;;
3407;SDS011;1717;50.240;8.406;2023-05-02T13:27:37;9.27;;;5.97;;
3407;SDS011;1717;50.240;8.406;2023-05-02T13:30:06;8.03;;;6.53;;
3407;SDS011;1717;50.240;8.406;2023-05-02T13:32:36;8.87;;;6.80;;
3407;SDS011;1717;50.240;8.406;2023-05-02T13:35:03;9.07;;;7.50;;
3407;SDS011;1717;50.240;8.406;2023-05-02T13:37:30;7.63;;;6.80;;
3407;SDS011;1717;50.240;8.406;2023-05-02T13:39:57;10.13;;;7.17;;
3407;SDS011;1717;50.240;8.406;2023-05-02T13:42:24;10.30;;;7.80;;
3407;SDS011;1717;50.240;8.406;2023-05-02T13:44:51;9.57;;;7.70;;
3407;SDS011;1717;50.240;8.406;2023-05-02T13:47:18;10.33;;;8.90;;
3407;SDS011;1717;50.240;8.406;2023-05-02T13:49:47;8.67;;;7.33;;
3407;SDS011;1717;50.240;8.406;2023-05-02T13:52:13;8.90;;;6.90;;
3407;SDS011;1717;50.240;8.406;2023-05-02T13:54:40;7.43;;;6.70;;
3407;SDS011;1717;50.240;8.406;2023-05-02T13:57:07;8.37;;;7.10;;
3407;SDS011;1717;50.240;8.406;2023-05-02T13:59:34;7.63;;;6.50;;
3407;SDS011;1717;50.240;8.406;2023-05-02T14:02:01;7.30;;;6.60;;
3407;SDS011;1717;50.240;8.406;2023-05-02T14:04:28;7.63;;;6.80;;
3407;SDS011;1717;50.240;8.406;2023-05-02T14:06:56;9.07;;;7.00;;
3407;SDS011;1717;50.240;8.406;2023-05-02T14:09:23;8.47;;;6.77;;
3407;SDS011;1717;50.240;8.406;2023-05-02T14:11:50;9.17;;;7.17;;
3407;SDS011;1717;50.240;8.406;2023-05-02T14:14:17;9.50;;;8.23;;
3407;SDS011;1717;50.240;8.406;2023-05-02T14:16:44;10.83;;;8.17;;
3407;SDS011;1717;50.240;8.406;2023-05-02T14:19:11;7.97;;;6.73;;
3407;SDS011;1717;50.240;8.406;2023-05-02T14:21:38;8.10;;;6.57;;
3407;SDS011;1717;50.240;8.406;2023-05-02T14:24:06;9.20;;;8.10;;
3407;SDS011;1717;50.240;8.406;2023-05-02T14:26:33;10.40;;;7.50;;
3407;SDS011;1717;50.240;8.406;2023-05-02T14:29:00;10.37;;;7.87;;
3407;SDS011;1717;50.240;8.406;2023-05-02T14:31:27;8.57;;;7.77;;
3407;SDS011;1717;50.240;8.406;2023-05-02T14:33:54;9.40;;;7.50;;
3407;SDS011;1717;50.240;8.406;2023-05-02T14:36:21;9.10;;;8.10;;
3407;SDS011;1717;50.240;8.406;2023-05-02T14:38:48;8.50;;;7.07;;
3407;SDS011;1717;50.240;8.406;2023-05-02T14:41:16;8.17;;;6.83;;
3407;SDS011;1717;50.240;8.406;2023-05-02T14:43:43;7.60;;;6.77;;
3407;SDS011;1717;50.240;8.406;2023-05-02T14:46:10;8.10;;;7.30;;
3407;SDS011;1717;50.240;8.406;2023-05-02T14:48:37;6.83;;;6.07;;
3407;SDS011;1717;50.240;8.406;2023-05-02T14:51:04;7.43;;;6.60;;
3407;SDS011;1717;50.240;8.406;2023-05-02T14:53:31;10.93;;;6.47;;
3407;SDS011;1717;50.240;8.406;2023-05-02T14:55:58;6.90;;;6.20;;
3407;SDS011;1717;50.240;8.406;2023-05-02T14:58:26;7.17;;;6.47;;
3407;SDS011;1717;50.240;8.406;2023-05-02T15:00:53;7.00;;;6.30;;
3407;SDS011;1717;50.240;8.406;2023-05-02T15:03:20;5.63;;;5.13;;
3407;SDS011;1717;50.240;8.406;2023-05-02T15:05:47;6.60;;;4.80;;
3407;SDS011;1717;50.240;8.406;2023-05-02T15:08:13;4.10;;;3.70;;
3407;SDS011;1717;50.240;8.406;2023-05-02T15:10:40;4.93;;;4.43;;
3407;SDS011;1717;50.240;8.406;2023-05-02T15:13:07;5.63;;;4.90;;
3407;SDS011;1717;50.240;8.406;2023-05-02T15:15:36;4.80;;;4.37;;
3407;SDS011;1717;50.240;8.406;2023-05-02T15:18:03;6.20;;;4.53;;